sensor_id;sensor_type;location;lat;lon;timestamp;P1;durP1;ratioP1;P2;durP2;ratioP2
35648;SDS011;21768;48.562;13.414;2022-09-02T00:01:53;2.95;;;1.80;;
35648;SDS011;21768;48.562;13.414;2022-09-02T00:04:20;2.50;;;1.55;;
35648;SDS011;21768;48.562;13.414;2022-09-02T00:06:48;7.70;;;1.73;;
35648;SDS011;21768;48.562;13.414;2022-09-02T00:09:15;6.93;;;1.85;;
35648;SDS011;21768;48.562;13.414;2022-09-02T00:11:44;12.80;;;1.98;;
35648;SDS011;21768;48.562;13.414;2022-09-02T00:14:12;6.00;;;1.90;;
35648;SDS011;21768;48.562;13.414;2022-09-02T00:16:40;6.97;;;1.90;;
35648;SDS011;21768;48.562;13.414;2022-09-02T00:19:06;9.98;;;1.83;;
35648;SDS011;21768;48.562;13.414;2022-09-02T00:21:33;3.72;;;1.60;;
35648;SDS011;21768;48.562;13.414;2022-09-02T00:24:03;3.65;;;1.77;;
35648;SDS011;21768;48.562;13.414;2022-09-02T00:26:29;5.80;;;1.95;;
35648;SDS011;21768;48.562;13.414;2022-09-02T00:28:55;4.38;;;1.65;;
35648;SDS011;21768;48.562;13.414;2022-09-02T00:31:21;8.80;;;2.33;;
35648;SDS011;21768;48.562;13.414;2022-09-02T00:33:46;3.30;;;1.70;;
35648;SDS011;21768;48.562;13.414;2022-09-02T00:36:15;9.07;;;2.20;;
35648;SDS011;21768;48.562;13.414;2022-09-02T00:38:40;9.43;;;2.25;;
35648;SDS011;21768;48.562;13.414;2022-09-02T00:41:07;8.77;;;1.83;;
35648;SDS011;21768;48.562;13.414;2022-09-02T00:43:42;9.40;;;1.95;;
35648;SDS011;21768;48.562;13.414;2022-09-02T00:46:19;5.25;;;1.63;;
35648;SDS011;21768;48.562;13.414;2022-09-02T00:49:02;4.95;;;1.80;;
35648;SDS011;21768;48.562;13.414;2022-09-02T00:51:35;12.77;;;1.90;;
35648;SDS011;21768;48.562;13.414;2022-09-02T00:54:05;7.45;;;1.77;;
35648;SDS011;21768;48.562;13.414;2022-09-02T00:56:31;4.45;;;1.90;;
35648;SDS011;21768;48.562;13.414;2022-09-02T00:58:58;11.45;;;1.83;;
35648;SDS011;21768;48.562;13.414;2022-09-02T01:01:24;4.63;;;1.98;;
35648;SDS011;21768;48.562;13.414;2022-09-02T01:03:51;2.22;;;1.60;;
35648;SDS011;21768;48.562;13.414;2022-09-02T01:06:18;3.72;;;1.60;;
35648;SDS011;21768;48.562;13.414;2022-09-02T01:08:46;5.30;;;1.73;;
35648;SDS011;21768;48.562;13.414;2022-09-02T01:11:18;6.07;;;1.85;;
35648;SDS011;21768;48.562;13.414;2022-09-02T01:13:45;6.40;;;2.45;;
35648;SDS011;21768;48.562;13.414;2022-09-02T01:16:28;1.85;;;1.52;;
35648;SDS011;21768;48.562;13.414;2022-09-02T01:21:24;5.80;;;2.05;;
35648;SDS011;21768;48.562;13.414;2022-09-02T01:23:50;4.50;;;2.15;;
35648;SDS011;21768;48.562;13.414;2022-09-02T01:26:17;5.63;;;1.85;;
35648;SDS011;21768;48.562;13.414;2022-09-02T01:28:42;6.35;;;1.98;;
35648;SDS011;21768;48.562;13.414;2022-09-02T01:31:08;2.75;;;1.90;;
35648;SDS011;21768;48.562;13.414;2022-09-02T01:33:34;3.65;;;1.90;;
35648;SDS011;21768;48.562;13.414;2022-09-02T01:35:59;9.68;;;1.90;;
35648;SDS011;21768;48.562;13.414;2022-09-02T01:38:26;2.50;;;1.92;;
35648;SDS011;21768;48.562;13.414;2022-09-02T01:40:52;13.93;;;2.03;;
35648;SDS011;21768;48.562;13.414;2022-09-02T01:43:20;4.22;;;2.15;;
35648;SDS011;21768;48.562;13.414;2022-09-02T01:45:49;4.72;;;2.08;;
35648;SDS011;21768;48.562;13.414;2022-09-02T01:48:17;3.10;;;1.73;;
35648;SDS011;21768;48.562;13.414;2022-09-02T01:50:45;4.82;;;1.40;;
35648;SDS011;21768;48.562;13.414;2022-09-02T01:53:14;4.43;;;1.83;;
35648;SDS011;21768;48.562;13.414;2022-09-02T01:55:40;5.85;;;1.80;;
35648;SDS011;21768;48.562;13.414;2022-09-02T01:58:06;10.00;;;1.65;;
35648;SDS011;21768;48.562;13.414;2022-09-02T02:00:31;2.65;;;1.80;;
35648;SDS011;21768;48.562;13.414;2022-09-02T02:02:57;8.60;;;1.90;;
35648;SDS011;21768;48.562;13.414;2022-09-02T02:05:22;5.65;;;1.60;;
35648;SDS011;21768;48.562;13.414;2022-09-02T02:07:48;3.42;;;1.70;;
35648;SDS011;21768;48.562;13.414;2022-09-02T02:10:15;11.10;;;1.90;;
35648;SDS011;21768;48.562;13.414;2022-09-02T02:12:42;4.05;;;1.80;;
35648;SDS011;21768;48.562;13.414;2022-09-02T02:15:09;3.47;;;1.63;;
35648;SDS011;21768;48.562;13.414;2022-09-02T02:17:37;3.90;;;1.75;;
35648;SDS011;21768;48.562;13.414;2022-09-02T02:20:03;4.10;;;1.55;;
35648;SDS011;21768;48.562;13.414;2022-09-02T02:22:30;2.90;;;1.60;;
35648;SDS011;21768;48.562;13.414;2022-09-02T02:24:56;4.53;;;1.90;;
35648;SDS011;21768;48.562;13.414;2022-09-02T02:27:21;4.05;;;1.60;;
35648;SDS011;21768;48.562;13.414;2022-09-02T02:29:47;9.05;;;1.58;;
35648;SDS011;21768;48.562;13.414;2022-09-02T02:32:13;5.20;;;1.45;;
35648;SDS011;21768;48.562;13.414;2022-09-02T02:34:39;8.25;;;1.63;;
35648;SDS011;21768;48.562;13.414;2022-09-02T02:37:05;4.78;;;1.80;;
35648;SDS011;21768;48.562;13.414;2022-09-02T02:39:30;7.22;;;1.60;;
35648;SDS011;21768;48.562;13.414;2022-09-02T02:41:56;6.18;;;1.70;;
35648;SDS011;21768;48.562;13.414;2022-09-02T02:44:22;6.15;;;1.70;;
35648;SDS011;21768;48.562;13.414;2022-09-02T02:46:48;4.88;;;1.77;;
35648;SDS011;21768;48.562;13.414;2022-09-02T02:49:14;2.97;;;1.55;;
35648;SDS011;21768;48.562;13.414;2022-09-02T02:51:40;3.90;;;1.90;;
35648;SDS011;21768;48.562;13.414;2022-09-02T02:54:06;3.35;;;1.48;;
35648;SDS011;21768;48.562;13.414;2022-09-02T02:56:32;2.92;;;1.85;;
35648;SDS011;21768;48.562;13.414;2022-09-02T02:58:57;4.75;;;1.75;;
35648;SDS011;21768;48.562;13.414;2022-09-02T03:01:29;5.75;;;1.80;;
35648;SDS011;21768;48.562;13.414;2022-09-02T03:03:56;5.05;;;1.67;;
35648;SDS011;21768;48.562;13.414;2022-09-02T03:06:21;4.65;;;1.60;;
35648;SDS011;21768;48.562;13.414;2022-09-02T03:08:47;4.28;;;1.65;;
35648;SDS011;21768;48.562;13.414;2022-09-02T03:11:13;4.45;;;1.70;;
35648;SDS011;21768;48.562;13.414;2022-09-02T03:13:40;2.83;;;1.67;;
35648;SDS011;21768;48.562;13.414;2022-09-02T03:16:05;4.00;;;1.75;;
35648;SDS011;21768;48.562;13.414;2022-09-02T03:18:31;3.00;;;1.67;;
35648;SDS011;21768;48.562;13.414;2022-09-02T03:20:57;4.65;;;1.88;;
35648;SDS011;21768;48.562;13.414;2022-09-02T03:23:23;2.95;;;1.60;;
35648;SDS011;21768;48.562;13.414;2022-09-02T03:25:49;3.20;;;1.73;;
35648;SDS011;21768;48.562;13.414;2022-09-02T03:28:14;8.10;;;1.80;;
35648;SDS011;21768;48.562;13.414;2022-09-02T03:30:41;7.43;;;1.63;;
35648;SDS011;21768;48.562;13.414;2022-09-02T03:33:08;7.72;;;1.60;;
35648;SDS011;21768;48.562;13.414;2022-09-02T03:35:37;11.90;;;3.40;;
35648;SDS011;21768;48.562;13.414;2022-09-02T03:38:04;6.88;;;2.13;;
35648;SDS011;21768;48.562;13.414;2022-09-02T03:40:30;7.22;;;2.60;;
35648;SDS011;21768;48.562;13.414;2022-09-02T03:42:55;4.63;;;2.30;;
35648;SDS011;21768;48.562;13.414;2022-09-02T03:45:21;5.60;;;1.75;;
35648;SDS011;21768;48.562;13.414;2022-09-02T03:47:47;2.88;;;1.83;;
35648;SDS011;21768;48.562;13.414;2022-09-02T03:50:22;2.42;;;1.50;;
35648;SDS011;21768;48.562;13.414;2022-09-02T03:52:50;6.50;;;1.75;;
35648;SDS011;21768;48.562;13.414;2022-09-02T03:55:16;2.00;;;1.50;;
35648;SDS011;21768;48.562;13.414;2022-09-02T03:57:43;6.28;;;1.60;;
35648;SDS011;21768;48.562;13.414;2022-09-02T04:00:09;4.82;;;1.80;;
35648;SDS011;21768;48.562;13.414;2022-09-02T04:02:36;3.63;;;1.75;;
35648;SDS011;21768;48.562;13.414;2022-09-02T04:05:02;5.70;;;1.40;;
35648;SDS011;21768;48.562;13.414;2022-09-02T04:07:27;4.43;;;1.63;;
35648;SDS011;21768;48.562;13.414;2022-09-02T04:09:53;3.22;;;1.60;;
35648;SDS011;21768;48.562;13.414;2022-09-02T04:12:20;5.63;;;1.70;;
35648;SDS011;21768;48.562;13.414;2022-09-02T04:14:46;7.38;;;1.83;;
35648;SDS011;21768;48.562;13.414;2022-09-02T04:23:40;8.63;;;2.13;;
35648;SDS011;21768;48.562;13.414;2022-09-02T04:26:11;6.05;;;1.83;;
35648;SDS011;21768;48.562;13.414;2022-09-02T04:28:38;7.35;;;1.92;;
35648;SDS011;21768;48.562;13.414;2022-09-02T04:31:05;2.20;;;1.70;;
35648;SDS011;21768;48.562;13.414;2022-09-02T04:33:32;10.05;;;1.70;;
35648;SDS011;21768;48.562;13.414;2022-09-02T04:35:58;10.88;;;2.13;;
35648;SDS011;21768;48.562;13.414;2022-09-02T04:38:24;3.30;;;1.55;;
35648;SDS011;21768;48.562;13.414;2022-09-02T04:40:49;4.88;;;1.83;;
35648;SDS011;21768;48.562;13.414;2022-09-02T04:43:15;3.35;;;1.77;;
35648;SDS011;21768;48.562;13.414;2022-09-02T04:45:44;4.43;;;1.95;;
35648;SDS011;21768;48.562;13.414;2022-09-02T04:48:10;4.97;;;1.60;;
35648;SDS011;21768;48.562;13.414;2022-09-02T04:50:37;5.40;;;1.95;;
35648;SDS011;21768;48.562;13.414;2022-09-02T04:53:03;11.45;;;1.63;;
35648;SDS011;21768;48.562;13.414;2022-09-02T04:55:29;4.68;;;1.70;;
35648;SDS011;21768;48.562;13.414;2022-09-02T04:57:56;3.83;;;1.98;;
35648;SDS011;21768;48.562;13.414;2022-09-02T05:00:22;3.05;;;1.90;;
35648;SDS011;21768;48.562;13.414;2022-09-02T05:02:48;3.47;;;2.17;;
35648;SDS011;21768;48.562;13.414;2022-09-02T05:05:14;7.47;;;1.70;;
35648;SDS011;21768;48.562;13.414;2022-09-02T05:07:39;5.05;;;2.00;;
35648;SDS011;21768;48.562;13.414;2022-09-02T05:10:05;3.92;;;1.90;;
35648;SDS011;21768;48.562;13.414;2022-09-02T05:12:32;3.92;;;1.70;;
35648;SDS011;21768;48.562;13.414;2022-09-02T05:14:58;3.28;;;1.80;;
35648;SDS011;21768;48.562;13.414;2022-09-02T05:17:25;4.68;;;2.00;;
35648;SDS011;21768;48.562;13.414;2022-09-02T05:19:52;5.65;;;1.75;;
35648;SDS011;21768;48.562;13.414;2022-09-02T05:22:17;8.07;;;1.90;;
35648;SDS011;21768;48.562;13.414;2022-09-02T05:24:44;3.08;;;1.80;;
35648;SDS011;21768;48.562;13.414;2022-09-02T05:27:10;4.00;;;2.03;;
35648;SDS011;21768;48.562;13.414;2022-09-02T05:29:35;4.30;;;1.55;;
35648;SDS011;21768;48.562;13.414;2022-09-02T05:32:01;8.98;;;1.70;;
35648;SDS011;21768;48.562;13.414;2022-09-02T05:34:28;4.78;;;1.70;;
35648;SDS011;21768;48.562;13.414;2022-09-02T05:36:54;2.50;;;1.50;;
35648;SDS011;21768;48.562;13.414;2022-09-02T05:39:19;3.20;;;1.50;;
35648;SDS011;21768;48.562;13.414;2022-09-02T05:41:44;9.35;;;2.83;;
35648;SDS011;21768;48.562;13.414;2022-09-02T05:44:10;3.10;;;1.73;;
35648;SDS011;21768;48.562;13.414;2022-09-02T05:46:36;4.07;;;2.05;;
35648;SDS011;21768;48.562;13.414;2022-09-02T05:49:02;2.70;;;2.00;;
35648;SDS011;21768;48.562;13.414;2022-09-02T05:54:06;5.18;;;1.52;;
35648;SDS011;21768;48.562;13.414;2022-09-02T05:56:33;1.60;;;1.50;;
35648;SDS011;21768;48.562;13.414;2022-09-02T05:58:58;9.38;;;1.58;;
35648;SDS011;21768;48.562;13.414;2022-09-02T06:01:24;2.97;;;1.60;;
35648;SDS011;21768;48.562;13.414;2022-09-02T06:03:50;5.60;;;1.73;;
35648;SDS011;21768;48.562;13.414;2022-09-02T06:06:17;9.90;;;1.50;;
35648;SDS011;21768;48.562;13.414;2022-09-02T06:08:44;4.25;;;1.75;;
35648;SDS011;21768;48.562;13.414;2022-09-02T06:11:10;9.57;;;1.70;;
35648;SDS011;21768;48.562;13.414;2022-09-02T06:13:38;7.88;;;1.70;;
35648;SDS011;21768;48.562;13.414;2022-09-02T06:16:06;9.13;;;1.50;;
35648;SDS011;21768;48.562;13.414;2022-09-02T06:18:34;2.67;;;1.55;;
35648;SDS011;21768;48.562;13.414;2022-09-02T06:21:01;3.28;;;1.30;;
35648;SDS011;21768;48.562;13.414;2022-09-02T06:23:28;3.80;;;2.05;;
35648;SDS011;21768;48.562;13.414;2022-09-02T06:25:53;3.60;;;1.30;;
35648;SDS011;21768;48.562;13.414;2022-09-02T06:28:19;8.65;;;1.35;;
35648;SDS011;21768;48.562;13.414;2022-09-02T06:30:44;2.60;;;1.20;;
35648;SDS011;21768;48.562;13.414;2022-09-02T06:33:14;2.33;;;1.55;;
35648;SDS011;21768;48.562;13.414;2022-09-02T06:35:42;2.42;;;1.40;;
35648;SDS011;21768;48.562;13.414;2022-09-02T06:38:09;5.25;;;1.67;;
35648;SDS011;21768;48.562;13.414;2022-09-02T06:40:36;3.65;;;1.52;;
35648;SDS011;21768;48.562;13.414;2022-09-02T06:43:10;5.00;;;1.60;;
35648;SDS011;21768;48.562;13.414;2022-09-02T06:45:39;6.38;;;1.60;;
35648;SDS011;21768;48.562;13.414;2022-09-02T06:48:05;7.13;;;1.60;;
35648;SDS011;21768;48.562;13.414;2022-09-02T06:50:32;4.10;;;1.20;;
35648;SDS011;21768;48.562;13.414;2022-09-02T06:52:57;6.32;;;1.42;;
35648;SDS011;21768;48.562;13.414;2022-09-02T06:55:23;2.00;;;1.13;;
35648;SDS011;21768;48.562;13.414;2022-09-02T06:57:48;1.52;;;0.98;;
35648;SDS011;21768;48.562;13.414;2022-09-02T07:00:14;2.55;;;1.17;;
35648;SDS011;21768;48.562;13.414;2022-09-02T07:02:41;3.85;;;1.17;;
35648;SDS011;21768;48.562;13.414;2022-09-02T07:05:07;5.80;;;1.00;;
35648;SDS011;21768;48.562;13.414;2022-09-02T07:07:40;3.10;;;1.10;;
35648;SDS011;21768;48.562;13.414;2022-09-02T07:10:08;2.53;;;1.30;;
35648;SDS011;21768;48.562;13.414;2022-09-02T07:12:38;6.43;;;1.60;;
35648;SDS011;21768;48.562;13.414;2022-09-02T07:15:05;3.53;;;0.95;;
35648;SDS011;21768;48.562;13.414;2022-09-02T07:17:31;2.15;;;1.00;;
35648;SDS011;21768;48.562;13.414;2022-09-02T07:19:57;2.20;;;1.13;;
35648;SDS011;21768;48.562;13.414;2022-09-02T07:22:27;2.30;;;0.80;;
35648;SDS011;21768;48.562;13.414;2022-09-02T07:24:53;2.97;;;1.00;;
35648;SDS011;21768;48.562;13.414;2022-09-02T07:27:18;1.73;;;0.95;;
35648;SDS011;21768;48.562;13.414;2022-09-02T07:29:44;5.00;;;1.23;;
35648;SDS011;21768;48.562;13.414;2022-09-02T07:32:13;4.80;;;0.90;;
35648;SDS011;21768;48.562;13.414;2022-09-02T07:34:39;2.40;;;1.00;;
35648;SDS011;21768;48.562;13.414;2022-09-02T07:37:05;3.03;;;0.85;;
35648;SDS011;21768;48.562;13.414;2022-09-02T07:39:30;3.83;;;0.80;;
35648;SDS011;21768;48.562;13.414;2022-09-02T07:41:56;4.20;;;0.70;;
35648;SDS011;21768;48.562;13.414;2022-09-02T07:44:22;2.05;;;0.90;;
35648;SDS011;21768;48.562;13.414;2022-09-02T07:46:47;3.83;;;0.85;;
35648;SDS011;21768;48.562;13.414;2022-09-02T07:49:14;1.05;;;0.70;;
35648;SDS011;21768;48.562;13.414;2022-09-02T07:51:41;2.72;;;0.70;;
35648;SDS011;21768;48.562;13.414;2022-09-02T07:54:08;2.95;;;0.90;;
35648;SDS011;21768;48.562;13.414;2022-09-02T07:56:35;2.08;;;0.88;;
35648;SDS011;21768;48.562;13.414;2022-09-02T07:59:00;1.85;;;0.73;;
35648;SDS011;21768;48.562;13.414;2022-09-02T08:01:27;2.75;;;0.90;;
35648;SDS011;21768;48.562;13.414;2022-09-02T08:03:53;2.55;;;1.00;;
35648;SDS011;21768;48.562;13.414;2022-09-02T08:06:19;1.85;;;0.82;;
35648;SDS011;21768;48.562;13.414;2022-09-02T08:08:45;1.95;;;0.93;;
35648;SDS011;21768;48.562;13.414;2022-09-02T08:11:11;4.63;;;0.65;;
35648;SDS011;21768;48.562;13.414;2022-09-02T08:13:37;1.60;;;0.82;;
35648;SDS011;21768;48.562;13.414;2022-09-02T08:16:03;4.40;;;1.15;;
35648;SDS011;21768;48.562;13.414;2022-09-02T08:18:29;1.88;;;0.70;;
35648;SDS011;21768;48.562;13.414;2022-09-02T08:20:56;4.88;;;0.80;;
35648;SDS011;21768;48.562;13.414;2022-09-02T08:23:21;2.75;;;0.85;;
35648;SDS011;21768;48.562;13.414;2022-09-02T08:25:47;1.00;;;0.80;;
35648;SDS011;21768;48.562;13.414;2022-09-02T08:28:12;2.55;;;0.95;;
35648;SDS011;21768;48.562;13.414;2022-09-02T08:30:39;1.48;;;0.73;;
35648;SDS011;21768;48.562;13.414;2022-09-02T08:33:05;2.92;;;1.05;;
35648;SDS011;21768;48.562;13.414;2022-09-02T08:35:30;2.50;;;0.80;;
35648;SDS011;21768;48.562;13.414;2022-09-02T08:37:59;1.60;;;0.82;;
35648;SDS011;21768;48.562;13.414;2022-09-02T08:40:27;2.83;;;1.00;;
35648;SDS011;21768;48.562;13.414;2022-09-02T08:43:18;2.47;;;0.90;;
35648;SDS011;21768;48.562;13.414;2022-09-02T08:45:53;5.00;;;0.75;;
35648;SDS011;21768;48.562;13.414;2022-09-02T08:48:32;1.15;;;0.60;;
35648;SDS011;21768;48.562;13.414;2022-09-02T08:51:02;3.85;;;0.50;;
35648;SDS011;21768;48.562;13.414;2022-09-02T08:56:23;1.77;;;0.70;;
35648;SDS011;21768;48.562;13.414;2022-09-02T08:58:52;4.20;;;0.80;;
35648;SDS011;21768;48.562;13.414;2022-09-02T09:04:17;3.50;;;1.08;;
35648;SDS011;21768;48.562;13.414;2022-09-02T09:15:30;2.95;;;0.70;;
35648;SDS011;21768;48.562;13.414;2022-09-02T09:18:18;1.75;;;0.95;;
35648;SDS011;21768;48.562;13.414;2022-09-02T09:20:50;5.35;;;0.75;;
35648;SDS011;21768;48.562;13.414;2022-09-02T09:25:55;2.33;;;0.70;;
35648;SDS011;21768;48.562;13.414;2022-09-02T09:28:29;4.78;;;0.80;;
35648;SDS011;21768;48.562;13.414;2022-09-02T09:30:55;1.05;;;0.57;;
35648;SDS011;21768;48.562;13.414;2022-09-02T09:33:21;1.58;;;0.70;;
35648;SDS011;21768;48.562;13.414;2022-09-02T09:35:51;3.05;;;1.02;;
35648;SDS011;21768;48.562;13.414;2022-09-02T09:38:28;1.38;;;0.73;;
35648;SDS011;21768;48.562;13.414;2022-09-02T09:41:13;1.30;;;0.68;;
35648;SDS011;21768;48.562;13.414;2022-09-02T09:43:41;2.03;;;0.90;;
35648;SDS011;21768;48.562;13.414;2022-09-02T09:49:04;1.48;;;0.80;;
35648;SDS011;21768;48.562;13.414;2022-09-02T09:51:30;3.38;;;0.73;;
35648;SDS011;21768;48.562;13.414;2022-09-02T09:54:12;5.22;;;0.90;;
35648;SDS011;21768;48.562;13.414;2022-09-02T09:56:39;2.25;;;1.00;;
35648;SDS011;21768;48.562;13.414;2022-09-02T09:59:05;1.63;;;0.68;;
35648;SDS011;21768;48.562;13.414;2022-09-02T10:01:33;1.20;;;0.70;;
35648;SDS011;21768;48.562;13.414;2022-09-02T10:04:04;0.95;;;0.80;;
35648;SDS011;21768;48.562;13.414;2022-09-02T10:09:42;1.30;;;0.90;;
35648;SDS011;21768;48.562;13.414;2022-09-02T10:12:01;1.70;;;0.60;;
35648;SDS011;21768;48.562;13.414;2022-09-02T10:14:51;1.88;;;0.80;;
35648;SDS011;21768;48.562;13.414;2022-09-02T10:30:42;1.20;;;0.60;;
35648;SDS011;21768;48.562;13.414;2022-09-02T10:35:57;1.15;;;0.70;;
35648;SDS011;21768;48.562;13.414;2022-09-02T10:38:39;0.60;;;0.50;;
35648;SDS011;21768;48.562;13.414;2022-09-02T10:43:59;1.35;;;0.68;;
35648;SDS011;21768;48.562;13.414;2022-09-02T10:57:18;1.42;;;1.00;;
35648;SDS011;21768;48.562;13.414;2022-09-02T11:00:02;2.70;;;1.08;;
35648;SDS011;21768;48.562;13.414;2022-09-02T11:02:36;2.33;;;0.85;;
35648;SDS011;21768;48.562;13.414;2022-09-02T11:05:06;6.55;;;0.90;;
35648;SDS011;21768;48.562;13.414;2022-09-02T11:07:36;1.38;;;0.90;;
35648;SDS011;21768;48.562;13.414;2022-09-02T11:13:38;1.08;;;0.70;;
35648;SDS011;21768;48.562;13.414;2022-09-02T11:16:17;0.90;;;0.60;;
35648;SDS011;21768;48.562;13.414;2022-09-02T11:19:00;0.50;;;0.50;;
35648;SDS011;21768;48.562;13.414;2022-09-02T11:24:04;1.60;;;0.80;;
35648;SDS011;21768;48.562;13.414;2022-09-02T11:26:41;1.48;;;0.73;;
35648;SDS011;21768;48.562;13.414;2022-09-02T11:29:21;4.75;;;0.80;;
35648;SDS011;21768;48.562;13.414;2022-09-02T11:31:57;3.03;;;0.60;;
35648;SDS011;21768;48.562;13.414;2022-09-02T11:37:09;3.47;;;0.60;;
35648;SDS011;21768;48.562;13.414;2022-09-02T11:39:45;1.50;;;0.70;;
35648;SDS011;21768;48.562;13.414;2022-09-02T11:44:50;1.10;;;0.60;;
35648;SDS011;21768;48.562;13.414;2022-09-02T11:50:26;3.92;;;0.60;;
35648;SDS011;21768;48.562;13.414;2022-09-02T11:55:42;2.65;;;0.65;;
35648;SDS011;21768;48.562;13.414;2022-09-02T12:01:22;1.30;;;0.60;;
35648;SDS011;21768;48.562;13.414;2022-09-02T12:03:51;0.95;;;0.40;;
35648;SDS011;21768;48.562;13.414;2022-09-02T12:06:20;4.88;;;1.02;;
35648;SDS011;21768;48.562;13.414;2022-09-02T12:11:47;1.85;;;0.60;;
35648;SDS011;21768;48.562;13.414;2022-09-02T12:14:08;4.68;;;0.65;;
35648;SDS011;21768;48.562;13.414;2022-09-02T12:17:05;5.57;;;0.68;;
35648;SDS011;21768;48.562;13.414;2022-09-02T12:24:51;1.42;;;0.60;;
35648;SDS011;21768;48.562;13.414;2022-09-02T12:27:28;1.83;;;0.75;;
35648;SDS011;21768;48.562;13.414;2022-09-02T12:29:57;0.98;;;0.60;;
35648;SDS011;21768;48.562;13.414;2022-09-02T12:35:30;2.53;;;0.65;;
35648;SDS011;21768;48.562;13.414;2022-09-02T12:40:36;1.58;;;0.63;;
35648;SDS011;21768;48.562;13.414;2022-09-02T12:43:25;3.20;;;0.63;;
35648;SDS011;21768;48.562;13.414;2022-09-02T12:45:59;0.50;;;0.47;;
35648;SDS011;21768;48.562;13.414;2022-09-02T12:48:43;2.05;;;0.80;;
35648;SDS011;21768;48.562;13.414;2022-09-02T12:52:00;2.35;;;0.70;;
35648;SDS011;21768;48.562;13.414;2022-09-02T12:54:17;1.20;;;0.60;;
35648;SDS011;21768;48.562;13.414;2022-09-02T12:56:49;1.00;;;0.60;;
35648;SDS011;21768;48.562;13.414;2022-09-02T12:59:33;1.65;;;0.73;;
35648;SDS011;21768;48.562;13.414;2022-09-02T13:10:19;1.85;;;0.70;;
35648;SDS011;21768;48.562;13.414;2022-09-02T13:13:18;0.73;;;0.52;;
35648;SDS011;21768;48.562;13.414;2022-09-02T13:21:54;3.40;;;0.60;;
35648;SDS011;21768;48.562;13.414;2022-09-02T13:33:20;3.65;;;0.73;;
35648;SDS011;21768;48.562;13.414;2022-09-02T13:35:46;3.55;;;0.68;;
35648;SDS011;21768;48.562;13.414;2022-09-02T13:38:21;2.13;;;0.60;;
35648;SDS011;21768;48.562;13.414;2022-09-02T13:40:48;3.03;;;0.77;;
35648;SDS011;21768;48.562;13.414;2022-09-02T13:45:42;0.70;;;0.70;;
35648;SDS011;21768;48.562;13.414;2022-09-02T13:48:10;1.48;;;0.80;;
35648;SDS011;21768;48.562;13.414;2022-09-02T13:50:42;1.00;;;0.70;;
35648;SDS011;21768;48.562;13.414;2022-09-02T13:53:30;1.10;;;0.80;;
35648;SDS011;21768;48.562;13.414;2022-09-02T13:55:58;4.50;;;0.88;;
35648;SDS011;21768;48.562;13.414;2022-09-02T14:00:54;4.10;;;0.80;;
35648;SDS011;21768;48.562;13.414;2022-09-02T14:03:21;3.25;;;0.80;;
35648;SDS011;21768;48.562;13.414;2022-09-02T14:05:47;1.00;;;0.80;;
35648;SDS011;21768;48.562;13.414;2022-09-02T14:08:17;5.10;;;0.82;;
35648;SDS011;21768;48.562;13.414;2022-09-02T14:10:46;3.17;;;0.90;;
35648;SDS011;21768;48.562;13.414;2022-09-02T14:13:13;1.13;;;0.63;;
35648;SDS011;21768;48.562;13.414;2022-09-02T14:15:40;3.08;;;0.70;;
35648;SDS011;21768;48.562;13.414;2022-09-02T14:20:38;1.85;;;0.90;;
35648;SDS011;21768;48.562;13.414;2022-09-02T14:23:16;3.35;;;1.00;;
35648;SDS011;21768;48.562;13.414;2022-09-02T14:25:48;1.42;;;0.80;;
35648;SDS011;21768;48.562;13.414;2022-09-02T14:28:20;2.42;;;0.70;;
35648;SDS011;21768;48.562;13.414;2022-09-02T14:30:55;1.75;;;0.95;;
35648;SDS011;21768;48.562;13.414;2022-09-02T14:33:25;1.38;;;0.77;;
35648;SDS011;21768;48.562;13.414;2022-09-02T14:35:58;2.38;;;0.70;;
35648;SDS011;21768;48.562;13.414;2022-09-02T14:38:27;1.13;;;0.70;;
35648;SDS011;21768;48.562;13.414;2022-09-02T14:41:40;1.60;;;0.73;;
35648;SDS011;21768;48.562;13.414;2022-09-02T14:49:02;2.05;;;0.80;;
35648;SDS011;21768;48.562;13.414;2022-09-02T14:51:33;1.83;;;0.80;;
35648;SDS011;21768;48.562;13.414;2022-09-02T14:54:00;1.38;;;0.68;;
35648;SDS011;21768;48.562;13.414;2022-09-02T14:56:42;1.65;;;0.88;;
35648;SDS011;21768;48.562;13.414;2022-09-02T14:59:09;1.70;;;0.80;;
35648;SDS011;21768;48.562;13.414;2022-09-02T15:01:41;1.42;;;0.80;;
35648;SDS011;21768;48.562;13.414;2022-09-02T15:04:10;4.53;;;1.00;;
35648;SDS011;21768;48.562;13.414;2022-09-02T15:06:36;2.53;;;1.00;;
35648;SDS011;21768;48.562;13.414;2022-09-02T15:09:02;1.13;;;0.80;;
35648;SDS011;21768;48.562;13.414;2022-09-02T15:11:28;0.70;;;0.70;;
35648;SDS011;21768;48.562;13.414;2022-09-02T15:13:53;0.80;;;0.80;;
35648;SDS011;21768;48.562;13.414;2022-09-02T15:16:18;1.38;;;0.77;;
35648;SDS011;21768;48.562;13.414;2022-09-02T15:18:44;2.42;;;0.80;;
35648;SDS011;21768;48.562;13.414;2022-09-02T15:21:10;1.17;;;0.80;;
35648;SDS011;21768;48.562;13.414;2022-09-02T15:23:35;2.25;;;0.65;;
35648;SDS011;21768;48.562;13.414;2022-09-02T15:26:03;2.08;;;1.20;;
35648;SDS011;21768;48.562;13.414;2022-09-02T15:28:29;2.22;;;1.00;;
35648;SDS011;21768;48.562;13.414;2022-09-02T15:30:58;1.25;;;0.93;;
35648;SDS011;21768;48.562;13.414;2022-09-02T15:33:24;2.47;;;0.95;;
35648;SDS011;21768;48.562;13.414;2022-09-02T15:35:51;4.43;;;1.00;;
35648;SDS011;21768;48.562;13.414;2022-09-02T15:38:17;1.70;;;1.00;;
35648;SDS011;21768;48.562;13.414;2022-09-02T15:40:42;1.58;;;0.98;;
35648;SDS011;21768;48.562;13.414;2022-09-02T15:43:11;1.38;;;0.80;;
35648;SDS011;21768;48.562;13.414;2022-09-02T15:45:39;2.17;;;1.15;;
35648;SDS011;21768;48.562;13.414;2022-09-02T15:48:11;6.72;;;1.00;;
35648;SDS011;21768;48.562;13.414;2022-09-02T15:50:36;4.03;;;1.00;;
35648;SDS011;21768;48.562;13.414;2022-09-02T15:53:02;2.10;;;1.02;;
35648;SDS011;21768;48.562;13.414;2022-09-02T15:55:30;1.08;;;0.85;;
35648;SDS011;21768;48.562;13.414;2022-09-02T15:57:56;3.78;;;0.80;;
35648;SDS011;21768;48.562;13.414;2022-09-02T16:00:22;4.95;;;1.40;;
35648;SDS011;21768;48.562;13.414;2022-09-02T16:02:48;1.77;;;0.95;;
35648;SDS011;21768;48.562;13.414;2022-09-02T16:05:14;1.55;;;0.80;;
35648;SDS011;21768;48.562;13.414;2022-09-02T16:07:39;1.23;;;0.80;;
35648;SDS011;21768;48.562;13.414;2022-09-02T16:10:05;1.50;;;1.13;;
35648;SDS011;21768;48.562;13.414;2022-09-02T16:12:31;2.00;;;1.50;;
35648;SDS011;21768;48.562;13.414;2022-09-02T16:14:56;1.60;;;1.48;;
35648;SDS011;21768;48.562;13.414;2022-09-02T16:17:22;4.03;;;3.05;;
35648;SDS011;21768;48.562;13.414;2022-09-02T16:19:47;2.85;;;1.13;;
35648;SDS011;21768;48.562;13.414;2022-09-02T16:22:13;1.83;;;1.15;;
35648;SDS011;21768;48.562;13.414;2022-09-02T16:24:38;1.83;;;1.30;;
35648;SDS011;21768;48.562;13.414;2022-09-02T16:27:04;2.05;;;1.38;;
35648;SDS011;21768;48.562;13.414;2022-09-02T16:29:29;1.67;;;1.10;;
35648;SDS011;21768;48.562;13.414;2022-09-02T16:31:56;2.97;;;1.00;;
35648;SDS011;21768;48.562;13.414;2022-09-02T16:34:22;1.50;;;1.00;;
35648;SDS011;21768;48.562;13.414;2022-09-02T16:36:48;3.28;;;1.02;;
35648;SDS011;21768;48.562;13.414;2022-09-02T16:39:15;1.10;;;0.90;;
35648;SDS011;21768;48.562;13.414;2022-09-02T16:41:43;2.78;;;0.80;;
35648;SDS011;21768;48.562;13.414;2022-09-02T16:44:17;1.38;;;1.00;;
35648;SDS011;21768;48.562;13.414;2022-09-02T16:46:45;3.22;;;1.00;;
35648;SDS011;21768;48.562;13.414;2022-09-02T16:49:12;1.40;;;1.00;;
35648;SDS011;21768;48.562;13.414;2022-09-02T16:51:42;4.03;;;0.98;;
35648;SDS011;21768;48.562;13.414;2022-09-02T16:54:09;2.30;;;0.93;;
35648;SDS011;21768;48.562;13.414;2022-09-02T16:56:35;1.50;;;0.90;;